Time;durP1;ratioP1;P1;durP2;ratioP2;P2;SDS_P1;SDS_P2;PMS_P1;PMS_P2;Temp;Humidity;BMP_temperature;BMP_pressure;BME280_temperature;BME280_humidity;BME280_pressure;Samples;Min_cycle;Max_cycle;Signal;HPM_P1;HPM_P2
2021/03/22 00:50:29;;;;;;;12.20;3.07;;;3.20;99.90;;;;;;6209621;22;20016;-79
2021/03/22 00:52:59;;;;;;;20.63;3.47;;;3.20;99.90;;;;;;6147489;22;20015;-80
2021/03/22 00:58:23;;;;;;;21.10;3.03;;;3.50;99.90;;;;;;6251825;22;20209;-80
2021/03/22 01:06:56;;;;;;;21.47;2.97;;;3.60;99.90;;;;;;6223278;22;20069;-83
2021/03/22 01:12:20;;;;;;;16.85;3.75;;;3.80;99.90;;;;;;6207488;22;20058;-81
2021/03/22 01:14:48;;;;;;;26.52;3.47;;;3.80;99.90;;;;;;6207855;22;20033;-83
2021/03/22 01:52:33;;;;;;;17.92;2.60;;;3.50;99.90;;;;;;6215508;22;20008;-80
2021/03/22 03:23:12;;;;;;;24.55;3.10;;;4.30;99.90;;;;;;6240806;22;20004;-81
2021/03/22 03:31:50;;;;;;;22.38;4.45;;;4.50;99.90;;;;;;6201531;22;20024;31
2021/03/22 04:26:50;;;;;;;22.65;3.45;;;4.60;99.90;;;;;;6175090;22;20029;-81
2021/03/22 04:38:09;;;;;;;19.67;3.67;;;4.50;99.90;;;;;;6225087;22;20030;-79
2021/03/22 04:46:35;;;;;;;22.67;3.80;;;4.70;99.90;;;;;;6207020;22;20028;-82
2021/03/22 04:49:06;;;;;;;25.00;3.67;;;4.70;99.90;;;;;;6188869;22;20004;-80
2021/03/22 05:29:02;;;;;;;26.70;3.47;;;4.80;99.90;;;;;;6266612;22;20023;-84
2021/03/22 05:43:50;;;;;;;21.48;3.95;;;4.80;99.90;;;;;;6191096;22;20118;-78
2021/03/22 05:46:46;;;;;;;22.47;3.83;;;4.80;99.90;;;;;;6242962;22;20110;31
2021/03/22 05:49:29;;;;;;;17.55;3.03;;;4.80;99.90;;;;;;6193325;22;20072;-83
2021/03/22 06:00:54;;;;;;;19.63;3.88;;;4.90;99.90;;;;;;6227681;22;20024;-82
2021/03/22 06:06:25;;;;;;;21.70;3.97;;;4.90;99.90;;;;;;6249739;22;20922;-80
2021/03/22 06:09:01;;;;;;;17.10;3.58;;;5.00;99.90;;;;;;6248196;22;20056;-83
2021/03/22 06:11:48;;;;;;;24.83;3.72;;;5.00;99.90;;;;;;6272928;22;20056;-83
2021/03/22 06:14:27;;;;;;;21.85;4.03;;;4.90;99.90;;;;;;6191668;23;20008;-83
2021/03/22 06:17:02;;;;;;;19.92;3.58;;;5.00;99.90;;;;;;6215999;23;20016;-83
2021/03/22 06:19:34;;;;;;;22.70;4.18;;;5.00;99.90;;;;;;6237498;23;20022;-83
2021/03/22 06:22:05;;;;;;;35.65;5.20;;;5.10;99.90;;;;;;6217331;23;20032;-84
2021/03/22 06:24:38;;;;;;;19.67;4.10;;;5.20;99.90;;;;;;6267029;23;20020;-82
2021/03/22 06:27:10;;;;;;;27.73;4.40;;;5.20;99.90;;;;;;6207963;23;20005;-82
2021/03/22 06:29:40;;;;;;;23.02;3.83;;;5.20;99.90;;;;;;6233391;23;20017;-82
2021/03/22 06:32:14;;;;;;;16.25;3.45;;;5.20;99.90;;;;;;6236212;23;20319;-83
2021/03/22 06:34:52;;;;;;;21.50;5.00;;;5.30;99.90;;;;;;6185360;23;20016;-82
2021/03/22 06:37:29;;;;;;;31.73;5.40;;;5.20;99.90;;;;;;6215941;23;20084;-83
2021/03/22 06:40:12;;;;;;;21.60;3.88;;;5.20;99.90;;;;;;6243148;22;20076;-84
2021/03/22 06:42:43;;;;;;;24.30;3.92;;;5.20;99.90;;;;;;6228481;23;20004;-83
2021/03/22 06:45:29;;;;;;;27.40;4.30;;;5.30;99.90;;;;;;6199022;22;21140;-83
2021/03/22 06:53:53;;;;;;;25.58;5.50;;;5.50;99.90;;;;;;6214957;22;20220;-81
2021/03/22 07:02:21;;;;;;;32.47;4.07;;;5.90;99.90;;;;;;6264291;22;20087;-83
2021/03/22 07:07:53;;;;;;;18.85;3.63;;;6.00;99.90;;;;;;6209486;22;20004;-84
2021/03/22 07:22:22;;;;;;;24.10;4.18;;;6.10;99.90;;;;;;6262978;22;20028;-83
2021/03/22 07:27:53;;;;;;;21.00;3.92;;;6.20;99.90;;;;;;6193916;22;20024;-79
2021/03/22 07:30:30;;;;;;;19.08;4.50;;;6.20;99.90;;;;;;6195127;22;20064;-83
2021/03/22 08:03:35;;;;;;;33.33;5.85;;;6.40;99.90;;;;;;6136938;23;20025;31
2021/03/22 09:58:40;;;;;;;26.92;5.97;;;10.60;89.10;;;;;;6143287;23;20054;31
2021/03/22 10:04:27;;;;;;;19.77;5.45;;;11.10;80.80;;;;;;6144276;22;20005;-83
2021/03/22 10:13:22;;;;;;;19.08;5.57;;;10.80;83.60;;;;;;6174987;22;20028;-83
2021/03/22 10:15:56;;;;;;;19.88;5.47;;;12.10;78.10;;;;;;6189070;23;20038;-86
2021/03/22 10:18:29;;;;;;;18.48;5.53;;;12.70;73.00;;;;;;6250849;23;20028;-91
2021/03/22 10:21:09;;;;;;;19.63;6.25;;;13.30;70.70;;;;;;6222174;23;20016;-90
2021/03/22 10:23:47;;;;;;;16.05;5.00;;;14.00;66.80;;;;;;6197445;23;20030;-91
2021/03/22 10:26:21;;;;;;;16.80;5.50;;;14.70;60.80;;;;;;6225421;23;20327;-91
2021/03/22 10:28:49;;;;;;;18.27;6.03;;;15.40;57.70;;;;;;6221682;23;20254;-89
2021/03/22 10:31:20;;;;;;;12.05;4.97;;;15.70;56.60;;;;;;6197106;23;20042;-87
2021/03/22 10:36:43;;;;;;;15.27;5.75;;;17.20;52.40;;;;;;6194342;23;20012;-86
2021/03/22 10:39:22;;;;;;;22.30;5.88;;;18.20;48.70;;;;;;6223936;23;20020;-87
2021/03/22 10:41:49;;;;;;;14.90;5.07;;;17.50;48.10;;;;;;6212121;23;20461;-89
2021/03/22 10:44:24;;;;;;;24.50;6.32;;;16.60;49.20;;;;;;6206215;23;20034;-91
2021/03/22 10:47:04;;;;;;;23.27;6.65;;;15.40;52.50;;;;;;6201632;23;20308;-91
2021/03/22 10:49:31;;;;;;;13.68;5.20;;;15.20;53.70;;;;;;6199753;23;20026;-90
2021/03/22 10:52:01;;;;;;;19.40;5.60;;;15.50;53.80;;;;;;6198314;23;20017;-88
2021/03/22 10:54:44;;;;;;;13.38;5.15;;;16.10;52.20;;;;;;6173155;23;20020;-89
2021/03/22 10:57:17;;;;;;;14.60;4.78;;;16.20;50.40;;;;;;6198589;23;20023;-90
2021/03/22 10:59:52;;;;;;;22.30;6.30;;;15.80;50.90;;;;;;6199224;23;20016;-89
2021/03/22 11:02:24;;;;;;;14.95;4.95;;;15.50;52.10;;;;;;6200628;23;20035;-91
2021/03/22 11:05:05;;;;;;;15.98;4.93;;;15.60;52.00;;;;;;6224032;23;20028;-88
2021/03/22 11:07:36;;;;;;;17.45;4.93;;;17.10;49.30;;;;;;6222800;23;20035;-86
2021/03/22 11:10:19;;;;;;;15.60;4.60;;;17.70;47.90;;;;;;6223062;23;20028;-86
2021/03/22 11:12:49;;;;;;;17.50;5.15;;;17.30;47.90;;;;;;6197843;23;20020;-88
2021/03/22 11:15:22;;;;;;;18.92;5.10;;;16.10;49.20;;;;;;6222102;22;20016;-89
2021/03/22 11:17:53;;;;;;;18.45;5.97;;;14.90;51.70;;;;;;6230058;23;20415;-89
2021/03/22 11:20:23;;;;;;;15.38;4.35;;;14.90;54.10;;;;;;6239491;23;20027;-88
2021/03/22 11:22:51;;;;;;;17.05;4.53;;;16.50;52.40;;;;;;6242251;23;20030;-84
2021/03/22 11:25:35;;;;;;;13.85;4.18;;;18.40;48.30;;;;;;6215509;23;20050;-84
2021/03/22 11:28:05;;;;;;;13.73;3.42;;;19.00;43.40;;;;;;6223308;23;20020;-87
2021/03/22 11:30:38;;;;;;;13.95;3.80;;;18.40;43.70;;;;;;6220475;23;20080;-86
2021/03/22 11:33:14;;;;;;;15.40;4.38;;;18.20;44.90;;;;;;6198517;23;20016;-84
2021/03/22 11:35:44;;;;;;;12.75;4.38;;;19.30;43.20;;;;;;6214632;23;20020;-88
2021/03/22 11:38:23;;;;;;;15.75;4.10;;;19.60;42.50;;;;;;6225426;23;20039;-89
2021/03/22 11:40:51;;;;;;;18.17;5.38;;;18.80;42.80;;;;;;6200646;23;20016;-91
2021/03/22 11:43:28;;;;;;;17.53;4.30;;;17.40;44.10;;;;;;6245486;23;20028;-90
2021/03/22 11:46:11;;;;;;;12.45;4.18;;;16.40;46.50;;;;;;6195917;23;20047;-89
2021/03/22 11:48:42;;;;;;;12.65;4.10;;;17.00;48.30;;;;;;6220520;23;20076;-88
2021/03/22 11:51:13;;;;;;;14.32;4.53;;;17.60;43.90;;;;;;6229108;23;20020;-86
2021/03/22 11:54:01;;;;;;;14.63;3.42;;;18.20;43.80;;;;;;6200620;23;20020;-85
2021/03/22 11:56:31;;;;;;;13.80;3.38;;;19.60;41.60;;;;;;6201758;23;20016;-85
2021/03/22 11:59:19;;;;;;;14.05;3.92;;;20.60;40.20;;;;;;6199520;23;20027;-85
2021/03/22 12:02:04;;;;;;;18.33;4.93;;;20.00;39.90;;;;;;6225418;23;20423;-88
2021/03/22 12:04:33;;;;;;;17.50;4.70;;;18.30;42.90;;;;;;6199234;23;20027;-88
2021/03/22 12:07:04;;;;;;;16.25;4.53;;;18.10;44.00;;;;;;6198781;23;20020;-91
2021/03/22 12:09:33;;;;;;;17.20;4.53;;;18.90;42.50;;;;;;6203978;23;20034;-88
2021/03/22 12:12:06;;;;;;;13.10;3.33;;;20.00;41.40;;;;;;6230256;23;20035;-91
2021/03/22 12:14:36;;;;;;;11.07;3.55;;;21.50;39.90;;;;;;6227661;23;20026;-89
2021/03/22 12:17:13;;;;;;;12.48;3.85;;;22.40;35.80;;;;;;6200294;23;20020;-88
2021/03/22 12:19:42;;;;;;;11.93;3.40;;;22.90;34.80;;;;;;6228511;23;20020;-88
2021/03/22 12:22:13;;;;;;;10.63;3.67;;;22.90;34.60;;;;;;6205634;23;20016;-88
2021/03/22 12:24:42;;;;;;;12.90;3.63;;;21.20;35.80;;;;;;6198284;23;20100;-87
2021/03/22 12:27:11;;;;;;;15.73;4.03;;;19.80;39.20;;;;;;6222222;23;20020;-85
2021/03/22 12:29:38;;;;;;;;;;;20.10;38.90;;;;;;6198253;23;20424;-85
2021/03/22 12:32:10;;;;;;;15.65;4.50;;;20.90;38.40;;;;;;6198493;23;19916;-86
2021/03/22 12:34:40;;;;;;;15.00;3.60;;;22.20;36.30;;;;;;6221755;23;20055;-85
2021/03/22 12:37:12;;;;;;;16.58;4.40;;;23.40;35.10;;;;;;6198327;23;20016;-85
2021/03/22 12:39:40;;;;;;;17.70;3.85;;;24.50;33.30;;;;;;6207490;23;20020;-85
2021/03/22 12:42:14;;;;;;;17.00;4.77;;;23.60;33.70;;;;;;6232360;23;20030;-85
2021/03/22 12:44:42;;;;;;;15.73;4.43;;;21.70;35.60;;;;;;6200107;23;20245;-85
2021/03/22 12:47:16;;;;;;;16.15;4.25;;;19.90;37.70;;;;;;6196719;23;20024;-85
2021/03/22 12:49:44;;;;;;;18.90;4.95;;;19.70;39.10;;;;;;6221295;23;20016;-87
2021/03/22 12:52:13;;;;;;;13.75;4.30;;;19.80;38.00;;;;;;6197341;23;20023;-89
2021/03/22 12:54:43;;;;;;;11.05;3.85;;;18.30;39.70;;;;;;6224759;23;20016;-90
2021/03/22 12:57:16;;;;;;;15.25;4.20;;;16.70;42.10;;;;;;6224908;23;20031;-91
2021/03/22 12:59:45;;;;;;;12.95;5.35;;;15.20;44.80;;;;;;6198736;23;20020;-91
2021/03/22 13:02:18;;;;;;;16.70;3.50;;;14.50;47.10;;;;;;6197898;23;20016;-90
2021/03/22 13:04:47;;;;;;;15.68;4.18;;;14.20;47.30;;;;;;6223254;23;20020;-91
2021/03/22 13:07:16;;;;;;;19.85;7.38;;;14.20;48.00;;;;;;6222913;23;20020;-88
2021/03/22 13:09:46;;;;;;;19.10;5.38;;;15.70;48.00;;;;;;6221307;23;20313;-87
2021/03/22 13:12:19;;;;;;;24.02;4.32;;;18.30;43.40;;;;;;6222657;23;20016;-86
2021/03/22 13:14:49;;;;;;;15.50;4.80;;;19.30;39.70;;;;;;6222594;23;20027;-86
2021/03/22 13:17:24;;;;;;;15.18;3.42;;;18.40;39.20;;;;;;6198882;23;20027;-88
2021/03/22 13:19:51;;;;;;;16.77;4.25;;;17.40;40.30;;;;;;6211578;23;20020;-91
2021/03/22 13:23:14;;;;;;;17.25;4.38;;;16.30;43.50;;;;;;6208514;23;20064;-91
2021/03/22 13:25:44;;;;;;;16.35;4.47;;;15.20;45.80;;;;;;6224498;23;20023;-90
2021/03/22 13:28:15;;;;;;;20.88;4.13;;;14.40;47.30;;;;;;6201128;23;20026;-92
2021/03/22 13:30:44;;;;;;;17.08;4.65;;;13.90;48.90;;;;;;6201187;23;20023;-89
2021/03/22 13:33:13;;;;;;;17.52;4.50;;;13.50;49.40;;;;;;6227688;23;20020;-89
2021/03/22 13:35:42;;;;;;;14.38;3.95;;;13.20;49.70;;;;;;6216507;23;20031;-87
2021/03/22 13:38:11;;;;;;;14.23;3.88;;;12.70;50.50;;;;;;6212311;23;20021;-89
2021/03/22 13:40:39;;;;;;;13.93;3.78;;;12.70;50.70;;;;;;6237167;23;20045;-88
2021/03/22 13:43:11;;;;;;;20.38;3.63;;;13.20;49.30;;;;;;6223977;23;20030;-91
2021/03/22 13:45:41;;;;;;;13.93;4.03;;;13.60;48.80;;;;;;6198450;23;20374;-91
2021/03/22 13:48:15;;;;;;;14.20;4.07;;;13.50;48.40;;;;;;6199732;23;20035;-90
2021/03/22 13:50:43;;;;;;;15.25;3.85;;;13.10;49.40;;;;;;6196701;23;20027;-90
2021/03/22 13:53:13;;;;;;;16.88;4.55;;;12.50;50.80;;;;;;6197182;23;20020;-88
2021/03/22 13:55:41;;;;;;;18.73;4.47;;;12.60;51.50;;;;;;6221924;23;20028;-90
2021/03/22 13:58:15;;;;;;;11.70;3.50;;;13.20;49.90;;;;;;6199043;23;20016;-89
2021/03/22 14:00:43;;;;;;;12.35;3.55;;;14.00;47.60;;;;;;6204290;23;20012;-89
2021/03/22 14:03:14;;;;;;;14.88;3.58;;;15.30;45.90;;;;;;6241495;23;20020;-90
2021/03/22 14:05:41;;;;;;;12.95;3.58;;;17.10;42.80;;;;;;6236034;23;20027;-89
2021/03/22 14:08:09;;;;;;;13.43;3.72;;;17.70;40.40;;;;;;6207607;23;20026;-91
2021/03/22 14:10:40;;;;;;;13.88;4.15;;;17.20;41.20;;;;;;6200850;23;20052;-90
2021/03/22 14:13:08;;;;;;;19.13;5.13;;;16.20;42.30;;;;;;6199212;23;20031;-91
2021/03/22 14:15:37;;;;;;;12.05;3.47;;;15.10;44.00;;;;;;6224428;23;20039;-92
2021/03/22 14:18:19;;;;;;;14.10;3.55;;;14.30;46.10;;;;;;6200167;23;20030;-88
2021/03/22 14:20:47;;;;;;;15.85;3.58;;;14.50;46.30;;;;;;6228644;23;20042;-91
2021/03/22 14:23:17;;;;;;;18.13;3.72;;;16.30;43.90;;;;;;6197429;23;20016;-88
2021/03/22 14:25:47;;;;;;;16.83;3.90;;;18.60;40.30;;;;;;6223536;23;20446;-86
2021/03/22 14:28:19;;;;;;;18.63;4.13;;;20.60;37.40;;;;;;6222247;23;20020;-86
2021/03/22 14:30:50;;;;;;;16.15;3.70;;;22.60;34.40;;;;;;6196153;23;20017;-86
2021/03/22 14:33:20;;;;;;;16.27;3.42;;;21.70;33.10;;;;;;6197702;23;20032;-88
2021/03/22 14:35:51;;;;;;;12.40;3.45;;;20.50;34.50;;;;;;6221622;23;20027;-86
2021/03/22 14:38:19;;;;;;;12.95;3.55;;;21.10;34.10;;;;;;6198059;23;20016;-91
2021/03/22 14:40:46;;;;;;;12.18;3.38;;;19.80;34.70;;;;;;6252656;23;20028;-94
2021/03/22 14:43:14;;;;;;;10.18;3.30;;;18.40;36.90;;;;;;6176227;23;20426;-91
2021/03/22 14:45:42;;;;;;;15.80;3.30;;;18.70;37.00;;;;;;6198332;23;20024;-87
2021/03/22 14:48:09;;;;;;;12.57;3.40;;;19.00;36.50;;;;;;6195585;23;20020;-89
2021/03/22 14:50:37;;;;;;;10.68;3.58;;;18.30;37.20;;;;;;6196592;23;20020;-86
2021/03/22 14:53:05;;;;;;;25.38;4.22;;;17.70;38.20;;;;;;6197271;23;20028;-88
2021/03/22 14:55:33;;;;;;;9.10;2.90;;;17.20;39.00;;;;;;6247486;23;20016;-89
2021/03/22 14:58:01;;;;;;;8.05;2.83;;;16.90;38.70;;;;;;6197129;23;20060;-89
2021/03/22 15:00:31;;;;;;;12.05;3.13;;;16.80;39.10;;;;;;6197599;23;20016;-89
2021/03/22 15:03:02;;;;;;;19.27;3.88;;;16.70;39.50;;;;;;6198164;23;20024;-90
2021/03/22 15:05:31;;;;;;;12.23;2.72;;;16.50;39.10;;;;;;6223338;23;20020;-91
2021/03/22 15:07:59;;;;;;;10.10;3.08;;;16.30;39.70;;;;;;6196845;23;20092;-91
2021/03/22 15:10:30;;;;;;;13.98;2.95;;;15.90;39.50;;;;;;6197117;23;20032;-94
2021/03/22 15:13:00;;;;;;;10.35;2.90;;;15.60;40.00;;;;;;6198524;23;20026;-91
2021/03/22 15:15:31;;;;;;;13.45;3.10;;;15.70;40.00;;;;;;6223840;23;20027;-91
2021/03/22 15:17:59;;;;;;;13.70;3.10;;;15.70;40.20;;;;;;6197815;23;20588;-92
2021/03/22 15:20:33;;;;;;;14.32;3.10;;;15.70;40.40;;;;;;6224301;23;20020;-94
2021/03/22 15:23:03;;;;;;;15.40;3.88;;;15.50;40.00;;;;;;6203643;23;20031;-93
2021/03/22 15:25:36;;;;;;;11.98;3.53;;;15.30;41.30;;;;;;6203855;23;20020;-90
2021/03/22 15:28:07;;;;;;;14.00;3.63;;;15.10;42.10;;;;;;6224346;23;20281;-90
2021/03/22 15:30:35;;;;;;;14.18;3.55;;;14.90;42.90;;;;;;6197827;23;20034;-91
2021/03/22 15:33:02;;;;;;;11.00;3.50;;;14.80;43.60;;;;;;6173633;23;20031;-89
2021/03/22 15:35:30;;;;;;;11.52;3.70;;;14.30;43.10;;;;;;6227944;23;20030;-89
2021/03/22 15:38:01;;;;;;;17.08;3.58;;;14.20;43.30;;;;;;6231123;23;20430;-88
2021/03/22 15:40:28;;;;;;;13.15;3.40;;;14.20;43.70;;;;;;6202990;23;20020;-90
2021/03/22 15:42:59;;;;;;;16.02;4.18;;;14.20;43.70;;;;;;6243817;23;20096;-92
2021/03/22 15:45:31;;;;;;;11.82;3.88;;;14.10;43.90;;;;;;6215437;23;20412;-91
2021/03/22 15:48:01;;;;;;;12.50;3.63;;;13.80;44.40;;;;;;6205144;23;20023;-91
2021/03/22 15:50:30;;;;;;;11.13;2.88;;;13.40;44.80;;;;;;6204311;23;20035;-93
2021/03/22 15:53:07;;;;;;;9.20;3.45;;;13.10;45.00;;;;;;6231263;23;20019;-90
2021/03/22 15:55:38;;;;;;;17.52;3.95;;;12.60;46.00;;;;;;6213229;23;20020;-90
2021/03/22 15:58:09;;;;;;;15.25;3.53;;;12.30;46.80;;;;;;6234494;23;20031;-88
2021/03/22 16:00:40;;;;;;;11.38;3.50;;;12.00;48.00;;;;;;6209671;23;20026;-89
2021/03/22 16:03:34;;;;;;;15.48;3.20;;;11.80;48.70;;;;;;6206416;23;20020;-92
2021/03/22 16:06:06;;;;;;;14.82;3.50;;;11.60;49.00;;;;;;6210896;23;20024;-91
2021/03/22 16:09:03;;;;;;;10.27;3.10;;;11.50;48.60;;;;;;6238785;23;20030;-91
2021/03/22 16:11:36;;;;;;;11.88;3.53;;;11.40;48.50;;;;;;6211820;23;20023;-91
2021/03/22 16:14:05;;;;;;;12.70;2.97;;;11.40;49.00;;;;;;6215272;23;20031;-88
2021/03/22 16:16:33;;;;;;;8.68;3.00;;;11.30;49.20;;;;;;6222399;22;20080;-93
2021/03/22 16:19:04;;;;;;;15.88;3.45;;;11.30;49.40;;;;;;6222075;22;20075;-92
2021/03/22 16:21:31;;;;;;;13.50;3.30;;;11.40;49.50;;;;;;6221318;23;20024;-90
2021/03/22 16:24:01;;;;;;;14.65;4.05;;;11.50;49.30;;;;;;6237412;23;20034;-91
2021/03/22 16:26:33;;;;;;;11.98;4.18;;;11.60;48.60;;;;;;6211213;23;20024;-89
2021/03/22 16:29:00;;;;;;;10.40;3.58;;;11.70;48.60;;;;;;6202177;23;20020;-90
2021/03/22 16:31:28;;;;;;;14.43;2.97;;;11.80;48.20;;;;;;6206136;23;20024;-89
2021/03/22 16:33:56;;;;;;;17.23;4.22;;;11.90;47.90;;;;;;6214748;23;20031;-89
2021/03/22 16:36:26;;;;;;;9.23;3.47;;;11.90;47.90;;;;;;6204952;23;20024;-91
2021/03/22 16:38:54;;;;;;;10.30;3.10;;;11.90;48.00;;;;;;6206558;23;20027;-85
2021/03/22 16:41:24;;;;;;;11.10;3.33;;;11.90;47.80;;;;;;6210537;23;20098;-87
2021/03/22 16:43:51;;;;;;;11.98;3.90;;;11.80;47.70;;;;;;6246300;23;20028;-88
2021/03/22 16:47:29;;;;;;;10.98;3.22;;;11.70;48.20;;;;;;6239227;23;20016;-88
2021/03/22 16:50:01;;;;;;;10.25;3.10;;;11.60;48.50;;;;;;6223932;22;20051;-82
2021/03/22 16:52:32;;;;;;;8.38;3.17;;;11.30;49.00;;;;;;6219872;23;20084;-84
2021/03/22 16:58:19;;;;;;;11.98;3.63;;;10.90;49.70;;;;;;6169886;23;20047;-79
2021/03/22 17:00:48;;;;;;;8.90;3.05;;;10.70;50.10;;;;;;6194574;22;20056;-86
2021/03/22 17:03:21;;;;;;;7.78;2.67;;;10.50;50.60;;;;;;6194299;23;20056;-86
2021/03/22 17:05:56;;;;;;;9.18;3.13;;;10.30;51.10;;;;;;6183453;23;20035;-87
2021/03/22 17:14:26;;;;;;;10.90;3.42;;;9.80;51.80;;;;;;6238959;22;20064;-83
2021/03/22 17:16:54;;;;;;;12.80;3.28;;;9.70;52.40;;;;;;6182150;22;20028;-83
2021/03/22 17:19:23;;;;;;;9.52;3.08;;;9.60;53.00;;;;;;6193444;22;20542;-85
2021/03/22 17:21:53;;;;;;;9.98;3.60;;;9.50;53.10;;;;;;6218622;23;20064;-85
2021/03/22 17:24:29;;;;;;;13.50;3.20;;;9.30;53.60;;;;;;6186611;23;20096;-84
2021/03/22 17:26:57;;;;;;;21.38;3.63;;;9.20;54.00;;;;;;6217822;23;20052;-85
2021/03/22 17:29:26;;;;;;;8.63;3.07;;;9.00;54.40;;;;;;6217696;23;20073;-85
2021/03/22 17:31:55;;;;;;;10.88;3.28;;;8.80;55.50;;;;;;6214602;22;20004;-84
2021/03/22 17:37:13;;;;;;;12.27;3.72;;;8.50;56.70;;;;;;6243671;22;20076;-84
2021/03/22 17:39:44;;;;;;;10.00;3.25;;;8.40;57.40;;;;;;6185419;23;20064;-80
2021/03/22 17:48:06;;;;;;;12.70;2.97;;;8.40;57.50;;;;;;6180137;22;20020;-84
2021/03/22 17:50:43;;;;;;;11.55;3.05;;;8.30;57.80;;;;;;6189795;23;20000;-82
2021/03/22 17:53:43;;;;;;;10.30;3.10;;;8.10;58.60;;;;;;6213216;23;20025;-86
2021/03/22 17:56:40;;;;;;;15.48;3.15;;;8.00;59.00;;;;;;6233474;23;20030;-83
2021/03/22 17:59:12;;;;;;;11.50;3.47;;;7.80;59.50;;;;;;6217776;22;20048;-85
2021/03/22 18:01:43;;;;;;;10.00;3.10;;;7.70;60.00;;;;;;6193009;23;20052;-83
2021/03/22 18:10:22;;;;;;;9.93;2.80;;;7.40;61.30;;;;;;6097797;23;20031;31
2021/03/22 18:18:57;;;;;;;11.15;3.33;;;7.40;61.60;;;;;;6156095;23;20045;-80
2021/03/22 18:24:30;;;;;;;20.13;3.60;;;7.20;63.30;;;;;;6207782;22;20008;-83
2021/03/22 18:27:00;;;;;;;11.65;3.53;;;7.20;63.00;;;;;;6192998;22;20052;-84
2021/03/22 18:32:25;;;;;;;12.43;3.25;;;7.40;62.60;;;;;;6217839;22;20041;-85
2021/03/22 18:34:56;;;;;;;14.18;3.88;;;7.20;63.20;;;;;;6192368;23;20053;-85
2021/03/22 18:37:25;;;;;;;11.05;3.10;;;7.20;63.10;;;;;;6192782;23;20057;-87
2021/03/22 18:40:02;;;;;;;10.70;3.65;;;7.30;63.10;;;;;;6181280;23;20027;-86
2021/03/22 18:42:36;;;;;;;16.23;4.22;;;7.20;63.50;;;;;;6192279;23;20022;-86
2021/03/22 18:45:06;;;;;;;10.38;3.30;;;7.30;63.20;;;;;;6191104;23;20056;-85
2021/03/22 18:47:40;;;;;;;15.43;4.18;;;7.30;63.20;;;;;;6216174;23;20016;-85
2021/03/22 18:50:11;;;;;;;9.95;3.25;;;7.30;63.10;;;;;;6185820;23;20046;-86
2021/03/22 18:52:44;;;;;;;12.13;2.88;;;7.20;63.50;;;;;;6210958;23;20016;-82
2021/03/22 18:55:17;;;;;;;11.93;2.92;;;7.20;63.40;;;;;;6183878;22;20078;-83
2021/03/22 18:57:49;;;;;;;9.70;3.30;;;7.10;64.10;;;;;;6186539;23;20023;-83
2021/03/22 19:00:26;;;;;;;12.82;3.88;;;7.10;63.90;;;;;;6161402;23;20080;-84
2021/03/22 19:03:02;;;;;;;11.88;3.47;;;7.00;64.60;;;;;;6163098;23;20056;-86
2021/03/22 19:05:31;;;;;;;14.02;4.20;;;6.90;64.90;;;;;;6187069;23;20056;-87
2021/03/22 19:08:15;;;;;;;12.95;4.22;;;6.80;65.30;;;;;;6163984;23;20049;-85
2021/03/22 19:10:56;;;;;;;15.02;4.13;;;6.80;65.60;;;;;;6226909;22;20031;-84
2021/03/22 19:13:36;;;;;;;14.80;4.70;;;6.80;65.80;;;;;;6192797;23;20007;-86
2021/03/22 19:16:05;;;;;;;16.55;4.05;;;6.70;66.20;;;;;;6241913;23;20064;-85
2021/03/22 19:18:49;;;;;;;13.10;4.15;;;6.60;66.60;;;;;;6221095;23;20056;-85
2021/03/22 19:21:24;;;;;;;16.45;4.97;;;6.70;66.70;;;;;;6191714;23;20000;-87
2021/03/22 19:24:04;;;;;;;19.27;5.00;;;6.80;67.00;;;;;;6193925;23;20056;-85
2021/03/22 19:26:34;;;;;;;13.88;4.22;;;6.60;67.60;;;;;;6193369;23;20020;-87
2021/03/22 19:29:13;;;;;;;15.52;4.57;;;6.70;67.30;;;;;;6218990;22;20056;-88
2021/03/22 19:34:52;;;;;;;19.45;4.80;;;6.60;67.90;;;;;;6203644;22;20719;-81
2021/03/22 19:40:15;;;;;;;13.20;4.93;;;6.60;68.80;;;;;;6199803;22;20012;-86
2021/03/22 19:45:41;;;;;;;17.80;4.97;;;6.80;68.30;;;;;;6175641;22;20029;-83
2021/03/22 19:48:20;;;;;;;16.65;4.50;;;7.00;67.40;;;;;;6216587;23;20021;-86
2021/03/22 19:51:05;;;;;;;15.77;4.93;;;7.30;66.50;;;;;;6194113;23;20048;-84
2021/03/22 19:53:41;;;;;;;15.82;5.07;;;7.30;66.80;;;;;;6193115;23;20091;-84
2021/03/22 19:56:14;;;;;;;13.48;4.55;;;7.40;67.50;;;;;;6218151;23;20048;-85
2021/03/22 19:58:48;;;;;;;11.35;4.65;;;7.60;69.30;;;;;;6194144;23;20072;-86
2021/03/22 20:01:26;;;;;;;20.58;5.05;;;7.60;70.40;;;;;;6217580;23;20061;-84
2021/03/22 20:03:57;;;;;;;11.82;4.32;;;7.60;71.50;;;;;;6216461;22;20072;-84
2021/03/22 20:06:29;;;;;;;12.02;4.60;;;7.70;72.70;;;;;;6191951;23;20085;-83
2021/03/22 20:08:58;;;;;;;10.27;3.78;;;7.70;74.00;;;;;;6192407;23;20072;-84
2021/03/22 20:11:29;;;;;;;;;;;7.70;75.30;;;;;;6191820;23;20052;-85
2021/03/22 20:14:05;;;;;;;12.25;3.35;;;7.70;77.20;;;;;;6192516;23;19956;-86
2021/03/22 20:16:40;;;;;;;12.75;4.28;;;7.50;79.20;;;;;;6215582;23;20027;-83
2021/03/22 20:19:16;;;;;;;11.60;3.90;;;7.40;81.90;;;;;;6217280;23;20025;-85
2021/03/22 20:21:46;;;;;;;10.30;4.20;;;7.50;84.50;;;;;;6191537;23;20101;-84
2021/03/22 20:24:17;;;;;;;16.08;4.30;;;7.50;87.30;;;;;;6191919;23;20030;-82
2021/03/22 20:26:50;;;;;;;10.15;4.03;;;7.50;89.60;;;;;;6192457;23;20080;-85
2021/03/22 20:29:27;;;;;;;9.35;3.65;;;7.40;91.10;;;;;;6192609;23;20064;-85
2021/03/22 20:32:08;;;;;;;13.68;3.25;;;7.50;93.10;;;;;;6215367;23;20072;-84
2021/03/22 20:35:07;;;;;;;13.23;4.60;;;7.70;94.00;;;;;;6216963;23;20057;-84
2021/03/22 20:37:37;;;;;;;19.77;3.60;;;7.70;95.10;;;;;;6192766;23;20068;-84
2021/03/22 20:40:08;;;;;;;10.88;3.30;;;7.70;96.00;;;;;;6217939;23;20084;-83
2021/03/22 20:42:55;;;;;;;15.52;4.32;;;7.70;97.10;;;;;;6192288;23;20004;-85
2021/03/22 20:45:31;;;;;;;10.43;3.90;;;7.60;98.30;;;;;;6192434;23;20052;-84
2021/03/22 20:48:10;;;;;;;11.32;3.72;;;7.50;99.60;;;;;;6192397;23;20056;-83
2021/03/22 20:50:41;;;;;;;10.63;3.92;;;7.60;99.90;;;;;;6193596;23;20064;-84
2021/03/22 20:53:22;;;;;;;9.00;3.50;;;7.60;99.90;;;;;;6193688;22;20068;-83
2021/03/22 20:55:58;;;;;;;9.38;3.88;;;7.60;99.90;;;;;;6176711;23;20004;-85
2021/03/22 21:01:39;;;;;;;8.97;3.87;;;7.50;99.90;;;;;;6199364;22;20009;-85
2021/03/22 21:10:46;;;;;;;8.02;3.30;;;7.50;99.90;;;;;;6161183;22;20004;31
2021/03/22 21:13:19;;;;;;;14.98;3.55;;;7.40;99.90;;;;;;6105103;23;20050;-87
2021/03/22 21:15:53;;;;;;;10.07;3.22;;;7.50;99.90;;;;;;6103931;23;20057;-83
2021/03/22 21:18:41;;;;;;;9.25;3.42;;;7.60;99.90;;;;;;6216940;22;20008;-86
2021/03/22 21:21:22;;;;;;;9.82;3.53;;;7.60;99.90;;;;;;6193722;23;20061;-86
2021/03/22 21:23:52;;;;;;;10.48;3.67;;;7.60;99.90;;;;;;6170922;23;20008;-86
2021/03/22 21:26:44;;;;;;;12.90;3.85;;;7.60;99.90;;;;;;6184281;23;20021;31
2021/03/22 21:32:14;;;;;;;9.90;3.33;;;7.60;99.90;;;;;;6214527;22;20024;-87
2021/03/22 21:34:48;;;;;;;10.43;3.97;;;7.70;99.90;;;;;;6189698;22;20072;-87
2021/03/22 21:37:22;;;;;;;9.00;3.58;;;7.60;99.90;;;;;;6174297;23;20025;-87
2021/03/22 21:39:55;;;;;;;9.40;3.50;;;7.60;99.90;;;;;;6192072;23;20085;-87
2021/03/22 21:42:26;;;;;;;10.68;3.90;;;7.50;99.90;;;;;;6178059;23;20005;-87
2021/03/22 21:44:59;;;;;;;9.60;3.50;;;7.50;99.90;;;;;;6192712;23;20113;-87
2021/03/22 21:47:29;;;;;;;7.97;3.60;;;7.50;99.90;;;;;;6176638;22;20024;-87
2021/03/22 21:50:00;;;;;;;10.80;3.42;;;7.60;99.90;;;;;;6177654;23;20043;-87
2021/03/22 21:52:32;;;;;;;10.18;3.78;;;7.60;99.90;;;;;;6191493;22;20012;-86
2021/03/22 21:55:01;;;;;;;10.90;3.80;;;7.60;99.90;;;;;;6191699;23;20057;-86
2021/03/22 21:57:35;;;;;;;10.27;3.85;;;7.60;99.90;;;;;;6153171;23;20008;-84
2021/03/22 22:00:07;;;;;;;8.18;3.60;;;7.60;99.90;;;;;;6217113;23;20061;-85
2021/03/22 22:02:38;;;;;;;8.63;3.28;;;7.60;99.90;;;;;;6138862;23;20011;-88
2021/03/22 22:05:11;;;;;;;8.18;3.40;;;7.60;99.90;;;;;;6216478;23;20076;-87
2021/03/22 22:10:43;;;;;;;7.53;3.20;;;7.60;99.90;;;;;;6191609;22;20013;-84
2021/03/22 22:13:15;;;;;;;9.18;3.20;;;7.60;99.90;;;;;;6168550;23;20080;-86
2021/03/22 22:19:41;;;;;;;7.47;2.83;;;7.60;99.90;;;;;;6237563;22;20072;-86
2021/03/22 22:22:21;;;;;;;8.55;3.17;;;7.50;99.90;;;;;;6217165;23;20064;-86
2021/03/22 22:24:51;;;;;;;12.05;3.47;;;7.50;99.90;;;;;;6162222;23;20043;-86
2021/03/22 22:27:20;;;;;;;7.38;3.40;;;7.50;99.90;;;;;;6217888;22;20056;-87
2021/03/22 22:29:50;;;;;;;6.20;2.88;;;7.50;99.90;;;;;;6160704;23;20021;-86
2021/03/22 22:32:32;;;;;;;9.13;3.35;;;7.60;99.90;;;;;;6163595;22;20020;-86
2021/03/22 22:48:34;;;;;;;10.30;4.13;;;7.40;99.90;;;;;;6191872;22;1935685;-81
2021/03/22 22:53:51;;;;;;;7.63;2.72;;;7.50;99.90;;;;;;6229049;22;20639;31
2021/03/22 22:56:20;;;;;;;8.00;2.97;;;7.50;99.90;;;;;;6231901;22;20059;-85
2021/03/22 22:58:56;;;;;;;11.02;3.72;;;7.50;99.90;;;;;;6221003;22;20068;-87